createdAt,value
2019-05-29T00:01:21.870Z,95.04
2019-05-29T00:03:49.410Z,95.84
2019-05-29T00:06:16.737Z,95.17
2019-05-29T00:08:44.008Z,94.00
2019-05-29T00:11:12.246Z,94.32
2019-05-29T00:13:39.705Z,94.41
2019-05-29T00:16:08.191Z,95.62
2019-05-29T00:18:35.671Z,95.14
2019-05-29T00:21:03.070Z,94.71
2019-05-29T00:23:30.492Z,94.05
2019-05-29T00:25:57.854Z,95.28
2019-05-29T00:28:25.150Z,94.91
2019-05-29T00:30:52.449Z,93.68
2019-05-29T00:33:19.792Z,95.05
2019-05-29T00:38:38.770Z,95.21
2019-05-29T00:41:06.761Z,95.80
2019-05-29T00:43:34.360Z,94.70
2019-05-29T00:46:01.726Z,94.84
2019-05-29T00:48:29.107Z,95.31
2019-05-29T00:50:56.523Z,95.86
2019-05-29T00:53:24.406Z,96.48
2019-05-29T00:55:51.783Z,96.63
2019-05-29T00:58:19.843Z,97.07
2019-05-29T01:00:47.440Z,97.03
2019-05-29T01:03:15.863Z,95.93
2019-05-29T01:05:43.546Z,96.32
2019-05-29T01:08:12.474Z,96.40
2019-05-29T01:10:40.057Z,96.58
2019-05-29T01:13:07.460Z,96.30
2019-05-29T01:15:34.798Z,96.33
2019-05-29T01:18:02.201Z,96.30
2019-05-29T01:20:29.559Z,96.19
2019-05-29T01:22:56.945Z,95.88
2019-05-29T01:25:24.318Z,96.29
2019-05-29T01:27:51.677Z,95.90
2019-05-29T01:30:19.424Z,94.16
2019-05-29T01:32:46.962Z,93.20
2019-05-29T01:35:15.691Z,92.65
2019-05-29T01:37:43.323Z,93.14
2019-05-29T01:40:21.076Z,93.50
2019-05-29T01:42:40.733Z,92.21
2019-05-29T01:45:08.812Z,92.80
2019-05-29T01:47:36.505Z,93.16
2019-05-29T01:50:04.368Z,93.14
2019-05-29T01:52:31.705Z,93.46
2019-05-29T01:54:59.095Z,93.73
2019-05-29T01:57:26.483Z,94.22
2019-05-29T01:59:53.851Z,93.86
2019-05-29T02:02:21.970Z,94.73
2019-05-29T02:04:49.590Z,94.57
2019-05-29T02:07:17.910Z,94.13
2019-05-29T02:09:45.497Z,94.09
2019-05-29T02:12:14.061Z,93.92
2019-05-29T02:14:41.418Z,94.41
2019-05-29T02:17:08.777Z,95.12
2019-05-29T02:19:36.191Z,95.07
2019-05-29T02:22:03.530Z,95.24
2019-05-29T02:24:30.902Z,95.03
2019-05-29T02:26:58.282Z,95.25
2019-05-29T02:29:26.902Z,95.20
2019-05-29T02:31:54.558Z,94.26
2019-05-29T02:34:23.151Z,94.33
2019-05-29T02:36:51.247Z,94.84
2019-05-29T02:39:18.897Z,93.87
2019-05-29T02:41:50.157Z,93.83
2019-05-29T02:44:19.027Z,93.30
2019-05-29T02:46:46.638Z,93.16
2019-05-29T02:49:14.026Z,92.72
2019-05-29T02:51:41.558Z,92.25
2019-05-29T02:54:08.921Z,92.61
2019-05-29T02:56:36.305Z,93.60
2019-05-29T02:59:03.791Z,93.38
2019-05-29T03:01:31.846Z,94.30
2019-05-29T03:03:59.429Z,95.08
2019-05-29T03:06:28.094Z,94.78
2019-05-29T03:08:55.617Z,94.85
2019-05-29T03:11:23.701Z,94.13
2019-05-29T03:13:52.245Z,95.21
2019-05-29T03:16:19.588Z,94.23
2019-05-29T03:18:47.060Z,94.22
2019-05-29T03:21:14.409Z,92.88
2019-05-29T03:23:41.802Z,92.92
2019-05-29T03:26:09.170Z,93.13
2019-05-29T03:28:38.000Z,94.21
2019-05-29T03:31:05.838Z,94.08
2019-05-29T03:33:42.987Z,93.16
2019-05-29T03:36:02.515Z,93.29
2019-05-29T03:38:30.354Z,93.27
2019-05-29T03:40:57.847Z,93.98
2019-05-29T03:43:26.176Z,92.72
2019-05-29T03:45:53.904Z,92.04
2019-05-29T03:48:21.307Z,91.52
2019-05-29T03:50:48.691Z,91.78
2019-05-29T03:53:16.063Z,92.09
2019-05-29T03:55:43.426Z,92.31
2019-05-29T03:58:10.837Z,91.89
2019-05-29T04:00:45.488Z,90.18
2019-05-29T04:03:07.504Z,90.78
2019-05-29T04:05:35.468Z,91.09
2019-05-29T04:08:03.494Z,90.86
2019-05-29T04:10:32.858Z,91.25
2019-05-29T04:13:00.862Z,90.87
2019-05-29T04:15:33.921Z,91.81
2019-05-29T04:18:05.038Z,92.32
2019-05-29T04:20:35.880Z,93.65
2019-05-29T04:23:04.918Z,93.60
2019-05-29T04:25:38.334Z,94.34
2019-05-29T04:28:05.186Z,94.85
2019-05-29T04:30:34.327Z,95.56
2019-05-29T04:33:02.186Z,95.42
2019-05-29T04:35:30.220Z,95.08
2019-05-29T04:37:57.807Z,95.20
2019-05-29T04:40:25.202Z,94.60
2019-05-29T04:42:52.550Z,92.38
2019-05-29T04:45:19.989Z,92.93
2019-05-29T04:47:47.362Z,93.68
2019-05-29T04:50:14.846Z,93.85
2019-05-29T04:52:42.240Z,94.39
2019-05-29T04:55:09.699Z,94.40
2019-05-29T04:57:37.253Z,94.33
2019-05-29T05:00:04.757Z,92.97
2019-05-29T05:02:33.020Z,92.66
2019-05-29T05:05:00.558Z,94.12
2019-05-29T05:07:29.497Z,93.78
2019-05-29T05:09:57.228Z,92.20
2019-05-29T05:12:24.577Z,94.29
2019-05-29T05:14:51.981Z,93.93
2019-05-29T05:17:26.380Z,93.82
2019-05-29T05:19:48.910Z,94.78
2019-05-29T05:22:16.287Z,95.20
2019-05-29T05:24:44.205Z,94.94
2019-05-29T05:27:12.006Z,94.95
2019-05-29T05:29:40.406Z,95.80
2019-05-29T05:32:07.901Z,95.60
2019-05-29T05:34:36.793Z,94.24
2019-05-29T05:37:04.639Z,94.69
2019-05-29T05:39:32.773Z,94.72
2019-05-29T05:42:00.317Z,94.70
2019-05-29T05:44:30.783Z,94.44
2019-05-29T05:46:58.258Z,93.15
2019-05-29T05:49:25.634Z,93.82
2019-05-29T05:51:53.041Z,94.61
2019-05-29T05:54:20.425Z,94.23
2019-05-29T05:56:47.818Z,94.18
2019-05-29T05:59:15.248Z,93.62
2019-05-29T06:01:42.638Z,92.23
2019-05-29T06:04:10.082Z,94.62
2019-05-29T06:06:38.107Z,93.78
2019-05-29T06:09:06.952Z,94.34
2019-05-29T06:11:34.281Z,95.11
2019-05-29T06:14:01.666Z,93.95
2019-05-29T06:16:32.843Z,94.28
2019-05-29T06:19:00.610Z,94.20
2019-05-29T06:21:28.247Z,94.24
2019-05-29T06:23:55.611Z,94.38
2019-05-29T06:26:23.006Z,92.09
2019-05-29T06:28:50.328Z,94.76
2019-05-29T06:31:17.735Z,95.14
2019-05-29T06:33:45.086Z,95.11
2019-05-29T06:36:12.563Z,94.08
2019-05-29T06:38:40.478Z,93.69
2019-05-29T06:41:09.261Z,93.80
2019-05-29T06:43:37.828Z,93.51
2019-05-29T06:46:05.507Z,92.90
2019-05-29T06:48:46.343Z,92.22
2019-05-29T06:51:02.081Z,91.33
2019-05-29T06:53:29.610Z,91.58
2019-05-29T06:55:58.597Z,92.65
2019-05-29T06:58:26.362Z,92.29
2019-05-29T07:00:53.798Z,91.79
2019-05-29T07:03:21.150Z,92.02
2019-05-29T07:05:51.294Z,92.84
2019-05-29T07:08:24.092Z,92.34
2019-05-29T07:10:47.013Z,91.73
2019-05-29T07:13:14.406Z,93.06
2019-05-29T07:15:42.929Z,92.71
2019-05-29T07:18:10.477Z,92.21
2019-05-29T07:20:38.515Z,91.92
2019-05-29T07:23:06.018Z,91.23
2019-05-29T07:25:33.405Z,92.48
2019-05-29T07:28:00.698Z,91.43
2019-05-29T07:30:30.114Z,92.08
2019-05-29T07:32:59.108Z,92.29
2019-05-29T07:35:26.589Z,91.36
2019-05-29T07:37:53.950Z,90.39
2019-05-29T07:40:21.360Z,90.27
2019-05-29T07:42:55.200Z,90.29
2019-05-29T07:45:18.619Z,89.71
2019-05-29T07:47:46.674Z,90.36
2019-05-29T07:50:15.465Z,90.32
2019-05-29T07:52:44.135Z,89.96
2019-05-29T07:55:12.474Z,88.63
2019-05-29T07:57:40.831Z,87.87
2019-05-29T08:00:11.554Z,88.86
2019-05-29T08:02:39.332Z,88.70
2019-05-29T08:05:07.380Z,88.63
2019-05-29T08:07:34.769Z,88.77
2019-05-29T08:10:02.279Z,87.85
2019-05-29T08:12:29.658Z,86.83
2019-05-29T08:14:57.031Z,84.78
2019-05-29T08:17:24.403Z,87.03
2019-05-29T08:20:05.020Z,86.11
2019-05-29T08:22:33.695Z,87.72
2019-05-29T08:24:51.095Z,88.14
2019-05-29T08:27:19.171Z,87.83
2019-05-29T08:29:47.129Z,85.21
2019-05-29T08:32:14.872Z,85.77
2019-05-29T08:34:43.069Z,85.12
2019-05-29T08:37:10.621Z,85.79
2019-05-29T08:39:38.019Z,85.97
2019-05-29T08:42:21.850Z,84.28
2019-05-29T08:44:34.792Z,84.29
2019-05-29T08:47:10.013Z,84.74
2019-05-29T08:49:31.513Z,87.36
2019-05-29T08:52:11.074Z,85.21
2019-05-29T08:54:28.244Z,84.73
2019-05-29T08:56:55.683Z,84.03
2019-05-29T08:59:23.117Z,83.54
2019-05-29T09:01:52.828Z,82.92
2019-05-29T09:04:19.798Z,83.74
2019-05-29T09:06:47.173Z,85.00
2019-05-29T09:09:14.502Z,85.98
2019-05-29T09:11:43.005Z,85.71
2019-05-29T09:14:10.546Z,85.68
2019-05-29T09:16:38.055Z,86.76
2019-05-29T09:19:05.602Z,83.98
2019-05-29T09:21:32.990Z,82.65
2019-05-29T09:24:00.419Z,83.06
2019-05-29T09:26:27.772Z,82.82
2019-05-29T09:28:55.204Z,85.04
2019-05-29T09:31:23.804Z,82.32
2019-05-29T09:33:51.489Z,81.27
2019-05-29T09:36:19.248Z,83.06
2019-05-29T09:38:48.346Z,81.54
2019-05-29T09:41:17.307Z,83.77
2019-05-29T09:43:58.338Z,82.56
2019-05-29T09:46:15.157Z,84.80
2019-05-29T09:48:49.858Z,84.51
2019-05-29T09:51:21.347Z,84.65
2019-05-29T09:53:42.092Z,87.08
2019-05-29T09:56:09.482Z,85.33
2019-05-29T09:58:36.885Z,85.60
2019-05-29T10:01:19.916Z,86.21
2019-05-29T10:03:33.614Z,85.93
2019-05-29T10:06:01.515Z,85.40
2019-05-29T10:08:29.094Z,87.00
2019-05-29T10:11:04.642Z,85.17
2019-05-29T10:13:25.733Z,87.70
2019-05-29T10:15:54.001Z,84.98
2019-05-29T10:18:31.838Z,86.40
2019-05-29T10:20:51.632Z,84.85
2019-05-29T10:23:20.095Z,87.10
2019-05-29T10:25:47.679Z,86.27
2019-05-29T10:28:14.974Z,84.97
2019-05-29T10:30:44.168Z,83.39
2019-05-29T10:33:11.650Z,85.04
2019-05-29T10:35:39.114Z,84.80
2019-05-29T10:38:06.459Z,85.27
2019-05-29T10:40:33.856Z,84.87
2019-05-29T10:43:01.215Z,86.63
2019-05-29T10:45:28.562Z,87.30
2019-05-29T10:47:55.965Z,89.13
2019-05-29T10:50:23.624Z,89.66
2019-05-29T10:52:52.161Z,88.85
2019-05-29T10:55:21.535Z,88.54
2019-05-29T10:57:49.152Z,90.52
2019-05-29T11:00:16.663Z,89.21
2019-05-29T11:02:45.908Z,89.70
2019-05-29T11:05:13.444Z,89.36
2019-05-29T11:07:40.821Z,88.75
2019-05-29T11:10:13.297Z,88.24
2019-05-29T11:12:39.651Z,89.15
2019-05-29T11:15:20.830Z,88.97
2019-05-29T11:17:37.005Z,90.09
2019-05-29T11:20:05.505Z,89.45
2019-05-29T11:22:32.861Z,88.67
2019-05-29T11:25:21.059Z,88.92
2019-05-29T11:27:29.462Z,89.09
2019-05-29T11:29:57.131Z,89.14
2019-05-29T11:32:24.675Z,90.57
2019-05-29T11:34:53.683Z,89.54
2019-05-29T11:37:21.276Z,90.07
2019-05-29T11:39:48.592Z,90.49
2019-05-29T11:42:26.851Z,89.78
2019-05-29T11:44:45.232Z,89.72
2019-05-29T11:47:12.555Z,88.40
2019-05-29T11:49:39.925Z,88.75
2019-05-29T11:52:23.816Z,89.40
2019-05-29T11:54:36.617Z,89.24
2019-05-29T11:57:04.036Z,88.83
2019-05-29T11:59:31.361Z,89.56
2019-05-29T12:02:00.603Z,89.85
2019-05-29T12:04:27.970Z,88.36
2019-05-29T12:06:57.553Z,89.01
2019-05-29T12:09:32.843Z,88.93
2019-05-29T12:11:55.959Z,89.13
2019-05-29T12:14:23.479Z,89.09
2019-05-29T12:16:51.762Z,90.18
2019-05-29T12:19:19.180Z,89.60
2019-05-29T12:21:46.489Z,87.12
2019-05-29T12:24:13.870Z,86.44
2019-05-29T12:26:41.213Z,87.84
2019-05-29T12:29:11.716Z,87.97
2019-05-29T12:31:37.901Z,88.74
2019-05-29T12:34:17.929Z,86.77
2019-05-29T12:36:34.781Z,88.20
2019-05-29T12:39:04.101Z,89.39
2019-05-29T12:41:31.481Z,84.71
2019-05-29T12:43:59.452Z,83.81
2019-05-29T12:46:27.240Z,84.51
2019-05-29T12:48:55.356Z,81.51
2019-05-29T12:51:22.886Z,82.18
2019-05-29T12:53:50.321Z,87.45
2019-05-29T12:56:17.771Z,82.48
2019-05-29T12:58:45.146Z,85.66
2019-05-29T13:01:12.550Z,87.34
2019-05-29T13:03:39.930Z,86.36
2019-05-29T13:06:07.282Z,85.73
2019-05-29T13:08:34.721Z,86.71
2019-05-29T13:11:02.625Z,86.05
2019-05-29T13:13:30.183Z,86.85
2019-05-29T13:15:58.782Z,87.22
2019-05-29T13:18:26.360Z,83.06
2019-05-29T13:20:54.772Z,81.46
2019-05-29T13:23:22.290Z,81.68
2019-05-29T13:25:49.647Z,81.72
2019-05-29T13:28:17.077Z,85.07
2019-05-29T13:30:44.523Z,84.83
2019-05-29T13:33:11.932Z,83.63
2019-05-29T13:35:39.341Z,83.08
2019-05-29T13:38:07.335Z,84.96
2019-05-29T13:40:34.923Z,85.19
2019-05-29T13:43:11.064Z,81.38
2019-05-29T13:45:31.725Z,81.19
2019-05-29T13:47:59.266Z,82.24
2019-05-29T13:50:26.820Z,83.64
2019-05-29T13:52:54.204Z,83.13
2019-05-29T13:55:21.622Z,84.49
2019-05-29T13:57:49.039Z,85.43
2019-05-29T14:00:32.582Z,84.21
2019-05-29T14:02:46.088Z,84.98
2019-05-29T14:05:14.206Z,86.12
2019-05-29T14:07:41.682Z,87.76
2019-05-29T14:10:09.805Z,88.27
2019-05-29T14:12:37.253Z,82.84
2019-05-29T14:15:06.461Z,81.47
2019-05-29T14:17:34.884Z,80.91
2019-05-29T14:20:02.767Z,84.90
2019-05-29T14:22:30.136Z,81.36
2019-05-29T14:24:57.591Z,82.93
2019-05-29T14:27:25.019Z,78.52
2019-05-29T14:29:52.408Z,78.50
2019-05-29T14:32:19.945Z,80.11
2019-05-29T14:34:47.300Z,81.30
2019-05-29T14:37:14.709Z,80.11
2019-05-29T14:39:42.115Z,80.39
2019-05-29T14:42:10.119Z,81.60
2019-05-29T14:44:37.975Z,82.54
2019-05-29T14:47:05.952Z,83.02
2019-05-29T14:49:33.719Z,84.01
2019-05-29T14:52:02.459Z,86.53
2019-05-29T14:54:41.269Z,85.21
2019-05-29T14:56:59.561Z,82.05
2019-05-29T14:59:27.073Z,79.85
2019-05-29T15:01:54.518Z,82.78
2019-05-29T15:04:21.894Z,85.03
2019-05-29T15:06:49.271Z,85.01
2019-05-29T15:09:17.114Z,81.71
2019-05-29T15:11:44.519Z,83.19
2019-05-29T15:14:12.351Z,81.50
2019-05-29T15:16:39.920Z,80.47
2019-05-29T15:19:07.469Z,81.18
2019-05-29T15:21:35.372Z,82.83
2019-05-29T15:24:02.866Z,83.85
2019-05-29T15:26:30.289Z,83.70
2019-05-29T15:28:57.719Z,86.56
2019-05-29T15:31:25.266Z,85.43
2019-05-29T15:33:52.652Z,84.12
2019-05-29T15:36:20.104Z,86.66
2019-05-29T15:38:47.538Z,86.12
2019-05-29T15:41:15.122Z,82.60
2019-05-29T15:43:42.568Z,83.84
2019-05-29T15:46:10.534Z,86.85
2019-05-29T15:48:39.405Z,83.98
2019-05-29T15:51:06.953Z,85.89
2019-05-29T15:53:34.671Z,86.42
2019-05-29T15:56:16.946Z,84.11
2019-05-29T15:58:31.433Z,81.83
2019-05-29T16:00:58.873Z,82.62
2019-05-29T16:03:26.211Z,82.12
2019-05-29T16:05:53.620Z,83.45
2019-05-29T16:08:21.090Z,84.13
2019-05-29T16:10:48.509Z,84.46
2019-05-29T16:13:17.262Z,85.78
2019-05-29T16:15:44.979Z,86.34
2019-05-29T16:18:22.992Z,86.39
2019-05-29T16:20:41.692Z,86.31
2019-05-29T16:23:10.732Z,87.91
2019-05-29T16:25:40.599Z,88.47
2019-05-29T16:28:07.823Z,88.87
2019-05-29T16:30:35.225Z,90.22
2019-05-29T16:33:02.644Z,88.69
2019-05-29T16:35:30.091Z,88.25
2019-05-29T16:37:57.515Z,87.15
2019-05-29T16:40:24.982Z,86.26
2019-05-29T16:42:52.382Z,89.45
2019-05-29T16:45:20.483Z,88.46
2019-05-29T16:47:48.054Z,89.40
2019-05-29T16:50:17.486Z,89.80
2019-05-29T16:52:45.483Z,86.60
2019-05-29T16:55:14.920Z,84.29
2019-05-29T16:57:42.888Z,83.54
2019-05-29T17:00:11.250Z,85.04
2019-05-29T17:02:38.769Z,87.75
2019-05-29T17:05:07.771Z,87.66
2019-05-29T17:07:35.224Z,87.42
2019-05-29T17:10:02.762Z,88.96
2019-05-29T17:12:30.165Z,90.31
2019-05-29T17:14:57.519Z,92.47
2019-05-29T17:17:25.004Z,90.63
2019-05-29T17:19:53.263Z,86.71
2019-05-29T17:22:21.061Z,88.33
2019-05-29T17:24:48.698Z,88.86
2019-05-29T17:27:16.603Z,89.77
2019-05-29T17:29:44.247Z,92.67
2019-05-29T17:32:11.638Z,89.64
2019-05-29T17:34:39.019Z,86.37
2019-05-29T17:37:06.402Z,86.61
2019-05-29T17:39:33.762Z,86.81
2019-05-29T17:42:01.157Z,86.89
2019-05-29T17:44:28.571Z,89.69
2019-05-29T17:46:56.010Z,90.49
2019-05-29T17:49:32.979Z,88.48
2019-05-29T17:51:52.703Z,89.62
2019-05-29T17:54:20.080Z,89.69
2019-05-29T17:56:47.445Z,89.83
2019-05-29T17:59:15.938Z,89.84
2019-05-29T18:01:43.438Z,89.95
2019-05-29T18:04:11.925Z,89.11
2019-05-29T18:06:39.320Z,89.51
2019-05-29T18:09:07.187Z,92.22
2019-05-29T18:11:34.598Z,92.43
2019-05-29T18:14:06.636Z,89.38
2019-05-29T18:16:31.289Z,88.76
2019-05-29T18:18:58.660Z,88.62
2019-05-29T18:21:26.038Z,89.09
2019-05-29T18:23:53.794Z,87.39
2019-05-29T18:26:22.008Z,86.56
2019-05-29T18:28:49.783Z,85.31
2019-05-29T18:31:18.303Z,86.26
2019-05-29T18:33:46.013Z,86.02
2019-05-29T18:36:13.366Z,87.07
2019-05-29T18:38:40.708Z,86.58
2019-05-29T18:41:08.107Z,87.51
2019-05-29T18:43:35.513Z,87.38
2019-05-29T18:46:02.993Z,89.04
2019-05-29T18:48:32.531Z,88.68
2019-05-29T18:50:59.821Z,87.34
2019-05-29T18:53:51.398Z,88.57
2019-05-29T18:56:09.804Z,87.25
2019-05-29T18:58:40.543Z,90.34
2019-05-29T19:01:08.076Z,89.16
2019-05-29T19:03:35.604Z,87.72
2019-05-29T19:06:03.015Z,87.12
2019-05-29T19:08:31.655Z,87.13
2019-05-29T19:10:59.940Z,86.91
2019-05-29T19:13:38.261Z,89.33
2019-05-29T19:16:10.518Z,88.21
2019-05-29T19:18:37.966Z,88.78
2019-05-29T19:21:08.363Z,89.64
2019-05-29T19:23:37.087Z,90.20
2019-05-29T19:26:04.596Z,91.01
2019-05-29T19:28:32.856Z,90.68
2019-05-29T19:31:00.630Z,91.53
2019-05-29T19:33:29.392Z,92.54
2019-05-29T19:35:58.869Z,92.44
2019-05-29T19:38:27.801Z,92.71
2019-05-29T19:40:55.505Z,92.67
2019-05-29T19:43:24.180Z,91.65
2019-05-29T19:45:53.056Z,91.86
2019-05-29T19:48:21.917Z,92.18
2019-05-29T19:50:49.372Z,93.10
2019-05-29T19:53:16.851Z,93.10
2019-05-29T19:55:45.349Z,93.56
2019-05-29T19:58:14.962Z,93.88
2019-05-29T20:00:51.580Z,94.54
2019-05-29T20:03:20.392Z,94.35
2019-05-29T20:05:49.712Z,93.91
2019-05-29T20:08:17.290Z,94.42
2019-05-29T20:10:49.551Z,92.24
2019-05-29T20:13:17.354Z,91.70
2019-05-29T20:15:44.832Z,92.08
2019-05-29T20:18:12.269Z,90.90
2019-05-29T20:20:50.437Z,91.96
2019-05-29T20:23:18.853Z,92.58
2019-05-29T20:25:46.266Z,90.93
2019-05-29T20:28:14.205Z,90.45
2019-05-29T20:30:42.550Z,89.93
2019-05-29T20:33:10.234Z,91.43
2019-05-29T20:35:37.671Z,91.54
2019-05-29T20:38:06.672Z,91.66
2019-05-29T20:40:35.145Z,91.50
2019-05-29T20:43:02.733Z,91.80
2019-05-29T20:45:31.342Z,92.76
2019-05-29T20:47:59.042Z,94.70
2019-05-29T20:50:26.447Z,94.14
2019-05-29T20:52:53.847Z,94.37
2019-05-29T20:55:21.201Z,93.63
2019-05-29T20:57:48.611Z,91.41
2019-05-29T21:00:18.761Z,92.33
2019-05-29T21:02:46.197Z,93.08
2019-05-29T21:05:15.178Z,93.30
2019-05-29T21:07:42.989Z,92.65
2019-05-29T21:10:12.420Z,92.76
2019-05-29T21:12:44.038Z,93.46
2019-05-29T21:15:09.903Z,93.79
2019-05-29T21:17:37.910Z,93.29
2019-05-29T21:20:05.723Z,93.22
2019-05-29T21:22:34.460Z,93.24
2019-05-29T21:25:07.298Z,92.02
2019-05-29T21:27:31.309Z,91.16
2019-05-29T21:29:58.650Z,91.71
2019-05-29T21:32:26.060Z,93.06
2019-05-29T21:34:53.429Z,92.13
2019-05-29T21:37:20.782Z,90.37
2019-05-29T21:39:48.203Z,90.45
2019-05-29T21:42:15.539Z,90.97
2019-05-29T21:44:42.959Z,92.20
2019-05-29T21:47:10.337Z,90.60
2019-05-29T21:49:38.898Z,92.54
2019-05-29T21:52:06.370Z,93.52
2019-05-29T21:54:33.738Z,93.22
2019-05-29T21:57:01.126Z,92.86
2019-05-29T21:59:28.446Z,92.38
2019-05-29T22:01:55.826Z,92.61
2019-05-29T22:04:23.198Z,92.47
2019-05-29T22:06:50.658Z,93.00
2019-05-29T22:09:18.032Z,90.88
2019-05-29T22:11:45.323Z,91.94
2019-05-29T22:14:12.734Z,92.37
2019-05-29T22:16:40.081Z,91.70
2019-05-29T22:19:07.439Z,91.81
2019-05-29T22:21:34.866Z,92.61
2019-05-29T22:24:02.213Z,93.39
2019-05-29T22:26:29.557Z,93.03
2019-05-29T22:28:57.340Z,92.84
2019-05-29T22:31:26.258Z,94.27
2019-05-29T22:33:53.599Z,94.37
2019-05-29T22:36:20.961Z,93.91
2019-05-29T22:38:48.689Z,92.63
2019-05-29T22:41:16.044Z,93.95
2019-05-29T22:43:43.402Z,94.45
2019-05-29T22:46:10.758Z,94.06
2019-05-29T22:48:38.118Z,94.25
2019-05-29T22:51:05.530Z,93.49
2019-05-29T22:53:32.887Z,93.30
2019-05-29T22:56:00.225Z,94.20
2019-05-29T22:58:27.626Z,94.45
2019-05-29T23:00:55.944Z,93.17
2019-05-29T23:03:23.534Z,92.75
2019-05-29T23:05:52.039Z,93.72
2019-05-29T23:08:19.757Z,94.28
2019-05-29T23:10:47.146Z,92.94
2019-05-29T23:13:14.478Z,93.29
2019-05-29T23:15:41.889Z,94.84
2019-05-29T23:18:09.353Z,94.88
2019-05-29T23:20:36.729Z,94.88
2019-05-29T23:23:04.081Z,94.66
2019-05-29T23:25:31.447Z,94.29
2019-05-29T23:27:59.018Z,94.00
2019-05-29T23:30:26.408Z,93.09
2019-05-29T23:32:54.895Z,94.67
2019-05-29T23:35:22.525Z,95.38
2019-05-29T23:37:49.900Z,94.84
2019-05-29T23:40:17.239Z,94.95
2019-05-29T23:42:44.611Z,95.62
2019-05-29T23:45:12.006Z,95.79
2019-05-29T23:47:39.323Z,95.74
2019-05-29T23:50:07.767Z,94.33
2019-05-29T23:52:35.140Z,93.03
2019-05-29T23:55:02.484Z,92.84
2019-05-29T23:57:29.886Z,93.67
